createdAt,value
2018-02-19T00:01:28.620Z,95422.55
2018-02-19T00:03:04.949Z,95403.56
2018-02-19T00:04:42.086Z,95400.14
2018-02-19T00:06:19.434Z,95402.25
2018-02-19T00:07:55.896Z,95381.70
2018-02-19T00:09:33.209Z,95362.83
2018-02-19T00:11:10.312Z,95343.49
2018-02-19T00:14:23.436Z,95321.59
2018-02-19T00:16:00.162Z,95335.77
2018-02-19T00:17:36.830Z,95320.33
2018-02-19T00:19:15.521Z,95307.12
2018-02-19T00:20:51.992Z,95292.86
2018-02-19T00:22:29.196Z,95280.08
2018-02-19T00:24:06.039Z,95283.95
2018-02-19T00:25:42.516Z,95275.31
2018-02-19T00:27:19.732Z,95274.05
2018-02-19T00:28:56.275Z,95286.56
2018-02-19T00:30:38.104Z,95275.39
2018-02-19T00:32:19.145Z,95261.22
2018-02-19T00:33:56.354Z,95251.81
2018-02-19T00:35:32.726Z,95247.09
2018-02-19T00:37:09.801Z,95240.14
2018-02-19T00:38:46.873Z,95235.91
2018-02-19T00:40:23.943Z,95236.38
2018-02-19T00:42:00.373Z,95226.09
2018-02-19T00:43:37.123Z,95237.18
2018-02-19T00:45:15.116Z,95233.34
2018-02-19T00:46:51.917Z,95204.13
2018-02-19T00:48:28.229Z,95212.34
2018-02-19T00:50:06.294Z,95198.14
2018-02-19T00:51:42.598Z,95196.48
2018-02-19T00:53:19.702Z,95193.88
2018-02-19T00:54:56.140Z,95194.34
2018-02-19T00:56:32.948Z,95208.05
2018-02-19T00:58:09.365Z,95200.20
2018-02-19T00:59:45.724Z,95196.41
2018-02-19T01:01:22.430Z,95198.14
2018-02-19T01:02:59.268Z,95187.00
2018-02-19T01:04:35.634Z,95192.91
2018-02-19T01:06:12.358Z,95205.39
2018-02-19T01:07:48.755Z,95199.41
2018-02-19T01:09:25.459Z,95213.56
2018-02-19T01:11:02.339Z,95215.76
2018-02-19T01:12:39.492Z,95216.60
2018-02-19T01:14:16.727Z,95211.00
2018-02-19T01:15:54.743Z,95210.20
2018-02-19T01:17:31.147Z,95215.33
2018-02-19T01:19:07.627Z,95224.28
2018-02-19T01:20:44.722Z,95223.86
2018-02-19T01:22:22.786Z,95237.22
2018-02-19T01:23:59.200Z,95230.69
2018-02-19T01:25:36.355Z,95235.03
2018-02-19T01:27:12.690Z,95215.22
2018-02-19T01:28:48.970Z,95204.59
2018-02-19T01:30:27.416Z,95201.13
2018-02-19T01:32:03.924Z,95211.92
2018-02-19T01:33:40.326Z,95206.78
2018-02-19T01:35:18.104Z,95193.88
2018-02-19T01:36:54.895Z,95175.87
2018-02-19T01:38:31.336Z,95159.98
2018-02-19T01:40:07.961Z,95157.08
2018-02-19T01:41:44.715Z,95144.64
2018-02-19T01:43:21.715Z,95142.11
2018-02-19T01:44:58.109Z,95126.22
2018-02-19T01:46:34.919Z,95135.16
2018-02-19T01:48:11.643Z,95153.70
2018-02-19T01:50:01.812Z,95137.39
2018-02-19T01:51:38.197Z,95125.80
2018-02-19T01:53:15.293Z,95115.52
2018-02-19T01:54:52.060Z,95120.70
2018-02-19T01:56:28.372Z,95113.41
2018-02-19T01:58:05.427Z,95110.88
2018-02-19T01:59:41.877Z,95117.67
2018-02-19T02:01:19.536Z,95114.72
2018-02-19T02:02:55.869Z,95131.41
2018-02-19T02:04:32.180Z,95115.52
2018-02-19T02:06:09.090Z,95144.26
2018-02-19T02:07:46.153Z,95150.66
2018-02-19T02:09:22.964Z,95160.49
2018-02-19T02:11:00.393Z,95156.61
2018-02-19T02:12:37.160Z,95164.36
2018-02-19T02:14:13.464Z,95158.77
2018-02-19T02:15:50.269Z,95190.45
2018-02-19T02:17:26.613Z,95191.77
2018-02-19T02:19:02.967Z,95233.26
2018-02-19T02:20:39.800Z,95235.88
2018-02-19T02:22:16.896Z,95236.38
2018-02-19T02:23:54.246Z,95356.41
2018-02-19T02:25:31.533Z,95429.73
2018-02-19T02:27:09.126Z,95382.03
2018-02-19T02:28:46.182Z,95336.11
2018-02-19T02:30:24.424Z,95340.12
2018-02-19T02:32:00.834Z,95249.50
2018-02-19T02:33:37.627Z,95230.27
2018-02-19T02:35:14.261Z,95245.79
2018-02-19T02:36:50.580Z,95241.10
2018-02-19T02:38:27.686Z,95201.22
2018-02-19T02:40:04.493Z,95180.22
2018-02-19T02:41:40.958Z,95155.77
2018-02-19T02:43:18.704Z,95137.39
2018-02-19T02:44:55.108Z,95129.55
2018-02-19T02:46:32.158Z,95125.80
2018-02-19T02:48:08.515Z,95115.09
2018-02-19T02:49:44.887Z,95100.14
2018-02-19T02:51:21.762Z,95087.63
2018-02-19T02:52:58.514Z,95107.84
2018-02-19T02:54:35.078Z,95113.84
2018-02-19T02:56:12.671Z,95105.70
2018-02-19T02:57:49.002Z,95087.20
2018-02-19T02:59:25.324Z,95069.77
2018-02-19T03:03:10.821Z,95067.69
2018-02-19T03:04:48.357Z,95073.26
2018-02-19T03:06:24.915Z,95071.06
2018-02-19T03:08:01.561Z,95091.24
2018-02-19T03:09:38.035Z,95083.91
2018-02-19T03:11:14.656Z,95053.92
2018-02-19T03:12:51.033Z,95067.31
2018-02-19T03:14:27.357Z,95083.49
2018-02-19T03:16:04.382Z,95080.92
2018-02-19T03:17:40.761Z,95075.74
2018-02-19T03:19:17.623Z,95086.06
2018-02-19T03:20:54.044Z,95087.37
2018-02-19T03:22:30.733Z,95096.73
2018-02-19T03:24:07.188Z,95079.20
2018-02-19T03:25:44.290Z,95089.47
2018-02-19T03:27:20.620Z,95104.47
2018-02-19T03:28:57.696Z,95107.47
2018-02-19T03:30:34.456Z,95130.56
2018-02-19T03:32:10.754Z,95169.13
2018-02-19T03:33:47.115Z,95198.60
2018-02-19T03:35:24.012Z,95213.65
2018-02-19T03:37:01.207Z,95199.09
2018-02-19T03:38:37.517Z,95179.45
2018-02-19T03:40:13.980Z,95190.13
2018-02-19T03:41:51.474Z,95208.05
2018-02-19T03:43:27.798Z,95208.09
2018-02-19T03:45:04.239Z,95225.62
2018-02-19T03:46:40.839Z,95223.06
2018-02-19T03:48:18.371Z,95195.22
2018-02-19T03:49:54.897Z,95183.79
2018-02-19T03:51:31.154Z,95195.30
2018-02-19T03:53:09.295Z,95180.22
2018-02-19T03:54:45.598Z,95177.34
2018-02-19T03:56:23.079Z,95149.44
2018-02-19T04:00:17.945Z,95112.22
2018-02-19T04:01:54.704Z,95113.95
2018-02-19T04:03:32.686Z,95108.81
2018-02-19T04:05:09.233Z,95101.11
2018-02-19T04:06:47.128Z,95089.52
2018-02-19T04:08:23.907Z,95069.84
2018-02-19T04:10:00.559Z,95080.13
2018-02-19T04:11:37.430Z,95070.30
2018-02-19T04:13:13.777Z,95074.48
2018-02-19T04:14:50.120Z,95091.79
2018-02-19T04:16:28.418Z,95086.10
2018-02-19T04:18:05.245Z,95101.11
2018-02-19T04:19:43.613Z,95096.39
2018-02-19T04:21:20.993Z,95082.36
2018-02-19T04:22:57.690Z,95074.09
2018-02-19T04:24:34.689Z,95058.30
2018-02-19T04:26:11.256Z,95053.16
2018-02-19T04:27:47.810Z,95057.46
2018-02-19T04:29:24.145Z,95066.05
2018-02-19T04:31:01.975Z,95070.34
2018-02-19T04:32:38.317Z,95052.70
2018-02-19T04:34:15.380Z,95053.13
2018-02-19T04:35:51.741Z,95076.87
2018-02-19T04:37:28.347Z,95067.31
2018-02-19T04:39:04.920Z,95054.43
2018-02-19T04:40:41.305Z,95045.48
2018-02-19T04:42:17.658Z,95047.22
2018-02-19T04:43:54.640Z,95051.09
2018-02-19T04:45:32.795Z,95054.17
2018-02-19T04:47:09.377Z,95056.73
2018-02-19T04:48:45.720Z,95052.39
2018-02-19T04:50:22.811Z,95040.73
2018-02-19T04:52:00.131Z,95031.30
2018-02-19T04:53:36.448Z,95033.91
2018-02-19T04:55:13.046Z,95034.75
2018-02-19T04:56:49.612Z,95051.86
2018-02-19T04:58:26.046Z,95063.94
2018-02-19T05:00:04.483Z,95059.61
2018-02-19T05:01:41.217Z,95091.70
2018-02-19T05:03:18.268Z,95096.77
2018-02-19T05:04:55.141Z,95111.84
2018-02-19T05:06:31.626Z,95120.33
2018-02-19T05:08:08.208Z,95120.74
2018-02-19T05:09:45.868Z,95116.48
2018-02-19T05:11:22.201Z,95129.34
2018-02-19T05:12:58.626Z,95132.33
2018-02-19T05:14:34.949Z,95146.45
2018-02-19T05:16:11.917Z,95145.14
2018-02-19T05:17:49.764Z,95153.31
2018-02-19T05:19:26.202Z,95145.19
2018-02-19T05:21:02.545Z,95169.67
2018-02-19T05:22:40.420Z,95167.44
2018-02-19T05:24:16.837Z,95148.22
2018-02-19T05:25:53.934Z,95152.48
2018-02-19T05:27:31.192Z,95150.70
2018-02-19T05:29:08.100Z,95179.07
2018-02-19T05:30:45.605Z,95171.28
2018-02-19T05:32:22.171Z,95186.70
2018-02-19T05:33:59.307Z,95192.23
2018-02-19T05:35:36.222Z,95191.47
2018-02-19T05:37:12.486Z,95212.84
2018-02-19T05:38:48.894Z,95230.39
2018-02-19T05:40:25.275Z,95299.86
2018-02-19T05:42:01.997Z,95285.30
2018-02-19T05:43:38.273Z,95275.86
2018-02-19T05:45:15.746Z,95269.83
2018-02-19T05:46:52.230Z,95245.44
2018-02-19T05:48:29.235Z,95232.20
2018-02-19T05:50:05.886Z,95226.14
2018-02-19T05:51:43.108Z,95227.94
2018-02-19T05:53:19.898Z,95219.77
2018-02-19T05:54:57.532Z,95227.44
2018-02-19T05:56:33.856Z,95216.69
2018-02-19T05:58:10.977Z,95242.02
2018-02-19T05:59:47.360Z,95254.85
2018-02-19T06:01:24.662Z,95286.56
2018-02-19T06:03:00.990Z,95293.06
2018-02-19T06:04:38.203Z,95271.14
2018-02-19T06:06:14.630Z,95240.77
2018-02-19T06:07:51.392Z,95215.88
2018-02-19T06:09:27.690Z,95189.23
2018-02-19T06:11:04.020Z,95194.84
2018-02-19T06:12:40.403Z,95195.30
2018-02-19T06:14:17.078Z,95181.22
2018-02-19T06:15:53.606Z,95189.74
2018-02-19T06:17:29.894Z,95211.20
2018-02-19T06:19:06.333Z,95246.75
2018-02-19T06:20:43.181Z,95296.14
2018-02-19T06:22:19.781Z,95305.89
2018-02-19T06:23:56.471Z,95306.81
2018-02-19T06:25:32.807Z,95318.42
2018-02-19T06:27:09.732Z,95278.89
2018-02-19T06:28:47.814Z,95251.90
2018-02-19T06:30:26.083Z,95255.43
2018-02-19T06:32:02.772Z,95282.85
2018-02-19T06:33:39.426Z,95349.27
2018-02-19T06:35:16.709Z,95425.70
2018-02-19T06:36:53.074Z,95400.38
2018-02-19T06:38:29.425Z,95365.52
2018-02-19T06:40:07.038Z,95392.62
2018-02-19T06:41:43.398Z,95468.95
2018-02-19T06:43:19.783Z,95427.82
2018-02-19T06:44:56.238Z,95351.00
2018-02-19T06:46:34.991Z,95331.67
2018-02-19T06:48:11.384Z,95317.57
2018-02-19T06:49:47.737Z,95308.13
2018-02-19T06:51:24.911Z,95287.49
2018-02-19T06:53:01.682Z,95297.02
2018-02-19T06:54:38.108Z,95275.13
2018-02-19T06:56:14.487Z,95252.81
2018-02-19T06:57:50.808Z,95246.79
2018-02-19T06:59:28.316Z,95264.38
2018-02-19T07:01:05.549Z,95287.95
2018-02-19T07:02:42.783Z,95276.36
2018-02-19T07:04:19.170Z,95251.55
2018-02-19T07:05:56.146Z,95255.36
2018-02-19T07:07:32.619Z,95225.41
2018-02-19T07:09:09.354Z,95224.65
2018-02-19T07:10:45.713Z,95236.59
2018-02-19T07:12:22.778Z,95262.31
2018-02-19T07:13:59.139Z,95243.84
2018-02-19T07:15:35.661Z,95278.97
2018-02-19T07:17:12.845Z,95257.20
2018-02-19T07:18:49.541Z,95239.96
2018-02-19T07:20:31.332Z,95239.53
2018-02-19T07:22:07.859Z,95261.89
2018-02-19T07:23:44.234Z,95325.64
2018-02-19T07:25:20.976Z,95332.13
2018-02-19T07:26:57.434Z,95368.17
2018-02-19T07:28:33.767Z,95375.56
2018-02-19T07:30:10.081Z,95402.99
2018-02-19T07:31:46.613Z,95353.23
2018-02-19T07:33:22.870Z,95343.81
2018-02-19T07:34:59.226Z,95310.73
2018-02-19T07:36:35.642Z,95304.28
2018-02-19T07:38:12.894Z,95309.85
2018-02-19T07:39:49.216Z,95349.35
2018-02-19T07:41:25.614Z,95349.84
2018-02-19T07:43:01.911Z,95326.72
2018-02-19T07:44:39.502Z,95317.70
2018-02-19T07:46:16.335Z,95317.19
2018-02-19T07:47:52.694Z,95319.77
2018-02-19T07:49:29.065Z,95344.66
2018-02-19T07:51:05.955Z,95363.48
2018-02-19T07:52:42.341Z,95353.61
2018-02-19T07:54:19.430Z,95346.27
2018-02-19T07:55:55.829Z,95379.44
2018-02-19T07:57:32.607Z,95470.38
2018-02-19T07:59:09.042Z,95478.06
2018-02-19T08:00:45.768Z,95497.45
2018-02-19T08:02:22.189Z,95576.81
2018-02-19T08:03:59.966Z,95726.25
2018-02-19T08:05:36.283Z,95736.64
2018-02-19T08:07:12.776Z,95700.06
2018-02-19T08:08:50.498Z,95600.44
2018-02-19T08:10:27.310Z,95575.55
2018-02-19T08:12:03.708Z,95583.23
2018-02-19T08:13:40.074Z,95774.55
2018-02-19T08:15:18.167Z,95813.93
2018-02-19T08:16:55.256Z,95889.78
2018-02-19T08:18:32.358Z,96046.08
2018-02-19T08:20:08.878Z,95934.09
2018-02-19T08:21:45.236Z,95736.69
2018-02-19T08:23:22.043Z,95673.49
2018-02-19T08:24:58.406Z,95553.66
2018-02-19T08:26:34.855Z,95467.84
2018-02-19T08:28:11.980Z,95470.84
2018-02-19T08:29:48.748Z,95519.34
2018-02-19T08:31:25.582Z,95538.65
2018-02-19T08:33:01.993Z,95534.37
2018-02-19T08:34:38.343Z,95515.07
2018-02-19T08:36:15.156Z,95561.38
2018-02-19T08:37:51.556Z,95570.04
2018-02-19T08:39:28.289Z,95609.94
2018-02-19T08:41:05.413Z,95758.68
2018-02-19T08:42:41.786Z,95833.55
2018-02-19T08:44:18.109Z,95865.73
2018-02-19T08:45:55.672Z,95848.15
2018-02-19T08:47:32.316Z,95812.03
2018-02-19T08:49:09.228Z,95871.73
2018-02-19T08:50:46.632Z,95962.59
2018-02-19T08:52:23.023Z,95969.09
2018-02-19T08:53:59.365Z,96011.34
2018-02-19T08:55:36.371Z,96064.28
2018-02-19T08:57:12.828Z,96191.36
2018-02-19T08:58:49.306Z,96214.22
2018-02-19T09:00:29.221Z,96331.55
2018-02-19T09:02:06.404Z,96513.28
2018-02-19T09:03:42.894Z,96482.59
2018-02-19T09:05:19.323Z,96569.98
2018-02-19T09:06:55.689Z,96622.59
2018-02-19T09:08:32.402Z,96684.05
2018-02-19T09:10:10.476Z,96702.23
2018-02-19T09:11:46.834Z,96649.03
2018-02-19T09:13:23.253Z,96728.22
2018-02-19T09:15:00.720Z,96773.19
2018-02-19T09:16:37.416Z,96727.34
2018-02-19T09:18:13.767Z,96707.45
2018-02-19T09:19:50.158Z,96689.67
2018-02-19T09:21:27.369Z,96679.75
2018-02-19T09:23:04.005Z,96595.42
2018-02-19T09:24:40.478Z,96571.30
2018-02-19T09:26:16.943Z,96675.02
2018-02-19T09:27:53.995Z,96704.00
2018-02-19T09:29:30.540Z,96710.58
2018-02-19T09:31:08.904Z,96711.72
2018-02-19T09:32:45.312Z,96742.45
2018-02-19T09:34:22.101Z,96805.28
2018-02-19T09:35:58.513Z,96682.41
2018-02-19T09:37:34.848Z,96464.20
2018-02-19T09:39:11.406Z,96551.08
2018-02-19T09:40:48.352Z,96631.86
2018-02-19T09:42:24.741Z,96650.41
2018-02-19T09:44:01.191Z,96614.58
2018-02-19T09:45:38.263Z,96273.84
2018-02-19T09:47:15.072Z,96105.77
2018-02-19T09:48:52.364Z,96231.17
2018-02-19T09:50:28.858Z,96287.70
2018-02-19T09:52:05.432Z,96333.08
2018-02-19T09:53:42.204Z,96514.38
2018-02-19T09:55:19.288Z,96694.61
2018-02-19T09:56:57.070Z,96606.88
2018-02-19T09:58:33.652Z,96689.42
2018-02-19T10:00:11.146Z,96764.65
2018-02-19T10:01:47.899Z,96863.86
2018-02-19T10:03:29.109Z,96882.02
2018-02-19T10:05:06.333Z,96885.44
2018-02-19T10:06:43.090Z,96871.19
2018-02-19T10:08:19.528Z,96892.88
2018-02-19T10:09:56.621Z,96895.05
2018-02-19T10:11:33.030Z,96845.70
2018-02-19T10:13:09.353Z,96888.99
2018-02-19T10:14:45.728Z,96904.13
2018-02-19T10:16:22.576Z,96804.98
2018-02-19T10:17:58.896Z,96468.14
2018-02-19T10:19:35.862Z,96441.87
2018-02-19T10:21:13.113Z,96635.02
2018-02-19T10:22:49.429Z,96765.96
2018-02-19T10:24:27.526Z,96855.20
2018-02-19T10:26:05.282Z,96983.44
2018-02-19T10:27:41.701Z,97004.25
2018-02-19T10:29:18.155Z,97108.34
2018-02-19T10:30:55.639Z,97100.91
2018-02-19T10:32:32.515Z,97101.33
2018-02-19T10:34:09.646Z,97012.58
2018-02-19T10:35:46.042Z,96858.66
2018-02-19T10:37:22.507Z,96830.64
2018-02-19T10:38:59.634Z,96852.15
2018-02-19T10:40:36.174Z,96892.09
2018-02-19T10:42:12.686Z,97034.24
2018-02-19T10:43:50.813Z,97064.57
2018-02-19T10:45:28.904Z,97094.88
2018-02-19T10:47:05.379Z,97120.84
2018-02-19T10:48:41.737Z,97107.03
2018-02-19T10:50:18.340Z,97095.77
2018-02-19T10:51:56.623Z,97021.17
2018-02-19T10:53:32.975Z,97013.07
2018-02-19T10:55:09.347Z,97158.27
2018-02-19T10:56:45.923Z,97222.50
2018-02-19T10:58:22.603Z,97163.02
2018-02-19T10:59:59.833Z,97134.84
2018-02-19T11:01:36.675Z,97150.42
2018-02-19T11:03:13.848Z,97214.66
2018-02-19T11:04:50.748Z,97032.47
2018-02-19T11:06:27.142Z,97040.34
2018-02-19T11:08:03.779Z,96900.41
2018-02-19T11:09:40.165Z,96799.44
2018-02-19T11:11:16.966Z,96810.33
2018-02-19T11:12:54.102Z,96829.83
2018-02-19T11:14:30.529Z,96908.67
2018-02-19T11:16:07.071Z,96868.83
2018-02-19T11:17:44.705Z,96872.68
2018-02-19T11:19:21.123Z,96872.61
2018-02-19T11:20:57.595Z,96666.69
2018-02-19T11:22:34.765Z,96676.19
2018-02-19T11:24:11.734Z,96638.54
2018-02-19T11:25:49.288Z,96559.43
2018-02-19T11:27:27.337Z,96494.20
2018-02-19T11:29:03.687Z,96514.95
2018-02-19T11:30:40.505Z,96514.48
2018-02-19T11:32:16.961Z,96492.86
2018-02-19T11:33:53.289Z,96437.22
2018-02-19T11:35:30.206Z,96374.98
2018-02-19T11:37:06.625Z,96368.95
2018-02-19T11:38:43.201Z,96410.02
2018-02-19T11:40:20.335Z,96573.28
2018-02-19T11:41:57.809Z,96731.13
2018-02-19T11:43:35.654Z,96950.98
2018-02-19T11:45:12.957Z,97115.73
2018-02-19T11:46:51.290Z,97239.41
2018-02-19T11:48:28.261Z,97156.52
2018-02-19T11:50:04.692Z,97250.66
2018-02-19T11:51:41.284Z,97361.42
2018-02-19T11:53:17.727Z,97435.70
2018-02-19T11:54:55.074Z,97400.03
2018-02-19T11:56:31.479Z,97477.38
2018-02-19T11:58:08.819Z,97546.59
2018-02-19T11:59:45.320Z,97487.80
2018-02-19T12:01:22.554Z,97420.13
2018-02-19T12:03:00.329Z,97390.03
2018-02-19T12:04:37.429Z,97374.42
2018-02-19T12:06:13.875Z,97490.48
2018-02-19T12:07:51.850Z,97574.41
2018-02-19T12:09:29.158Z,97606.09
2018-02-19T12:11:06.306Z,97589.54
2018-02-19T12:12:43.701Z,97577.41
2018-02-19T12:14:20.854Z,97519.17
2018-02-19T12:15:57.700Z,97439.11
2018-02-19T12:17:34.109Z,97423.95
2018-02-19T12:19:10.641Z,97406.62
2018-02-19T12:20:47.626Z,97450.95
2018-02-19T12:22:24.057Z,97496.55
2018-02-19T12:24:01.997Z,97549.16
2018-02-19T12:25:38.596Z,97594.39
2018-02-19T12:27:16.285Z,97583.95
2018-02-19T12:28:53.537Z,97540.94
2018-02-19T12:30:30.270Z,97515.31
2018-02-19T12:32:06.903Z,97534.43
2018-02-19T12:33:43.987Z,97643.23
2018-02-19T12:35:20.467Z,97731.45
2018-02-19T12:36:58.213Z,97771.16
2018-02-19T12:38:34.671Z,97764.67
2018-02-19T12:40:11.722Z,97779.46
2018-02-19T12:41:48.152Z,97751.05
2018-02-19T12:43:24.841Z,97764.16
2018-02-19T12:45:01.533Z,97840.89
2018-02-19T12:46:38.690Z,97871.38
2018-02-19T12:48:15.210Z,97839.58
2018-02-19T12:49:52.611Z,97562.70
2018-02-19T12:51:29.093Z,97276.91
2018-02-19T12:53:06.571Z,97033.55
2018-02-19T12:54:43.066Z,96965.50
2018-02-19T12:56:19.605Z,96922.63
2018-02-19T12:57:56.753Z,97159.72
2018-02-19T12:59:33.623Z,97296.80
2018-02-19T13:01:10.378Z,97380.59
2018-02-19T13:02:46.850Z,97437.42
2018-02-19T13:04:24.157Z,97423.55
2018-02-19T13:06:01.769Z,97437.95
2018-02-19T13:07:39.174Z,97512.67
2018-02-19T13:09:15.735Z,97277.23
2018-02-19T13:10:52.348Z,97002.77
2018-02-19T13:12:29.287Z,96975.41
2018-02-19T13:14:07.297Z,97121.49
2018-02-19T13:15:44.972Z,97152.27
2018-02-19T13:17:21.524Z,97298.57
2018-02-19T13:18:59.220Z,97462.77
2018-02-19T13:20:35.872Z,97567.53
2018-02-19T13:22:12.320Z,97466.57
2018-02-19T13:23:48.706Z,97456.20
2018-02-19T13:25:25.571Z,97631.86
2018-02-19T13:27:01.906Z,97783.83
2018-02-19T13:28:38.311Z,97905.80
2018-02-19T13:30:16.392Z,97996.01
2018-02-19T13:31:53.518Z,97839.09
2018-02-19T13:33:30.788Z,97752.90
2018-02-19T13:35:07.197Z,97791.23
2018-02-19T13:36:43.619Z,97918.91
2018-02-19T13:38:20.507Z,97876.58
2018-02-19T13:39:58.675Z,97765.53
2018-02-19T13:41:36.661Z,97914.57
2018-02-19T13:43:14.033Z,97983.47
2018-02-19T13:44:51.859Z,98097.25
2018-02-19T13:46:28.869Z,98098.55
2018-02-19T13:48:05.823Z,98119.92
2018-02-19T13:49:43.840Z,98153.08
2018-02-19T13:51:21.011Z,98075.47
2018-02-19T13:52:57.570Z,98030.95
2018-02-19T13:54:34.965Z,97998.71
2018-02-19T13:56:11.913Z,97948.55
2018-02-19T13:57:48.980Z,97823.03
2018-02-19T13:59:25.719Z,97885.31
2018-02-19T14:01:03.494Z,97751.18
2018-02-19T14:02:41.629Z,97631.92
2018-02-19T14:04:18.544Z,97690.70
2018-02-19T14:05:54.979Z,97881.44
2018-02-19T14:07:31.744Z,97981.23
2018-02-19T14:09:08.342Z,98104.22
2018-02-19T14:10:44.929Z,98199.80
2018-02-19T14:12:22.014Z,98201.53
2018-02-19T14:13:59.904Z,98162.29
2018-02-19T14:15:37.861Z,98129.08
2018-02-19T14:17:16.557Z,98156.59
2018-02-19T14:18:53.558Z,98108.56
2018-02-19T14:20:30.286Z,98078.00
2018-02-19T14:22:08.165Z,97935.87
2018-02-19T14:23:45.963Z,97718.47
2018-02-19T14:25:26.783Z,97808.76
2018-02-19T14:27:06.118Z,97818.69
2018-02-19T14:28:54.674Z,97757.33
2018-02-19T14:30:38.721Z,97586.66
2018-02-19T14:32:17.901Z,97403.69
2018-02-19T14:33:57.427Z,97510.64
2018-02-19T14:35:34.955Z,97742.02
2018-02-19T14:37:12.188Z,97882.33
2018-02-19T14:38:49.092Z,97919.38
2018-02-19T14:40:26.593Z,97903.59
2018-02-19T14:42:05.567Z,97937.09
2018-02-19T14:43:45.991Z,97907.98
2018-02-19T14:45:26.595Z,97934.17
2018-02-19T14:47:05.141Z,98027.91
2018-02-19T14:48:41.867Z,98160.08
2018-02-19T14:50:19.016Z,98275.88
2018-02-19T14:51:56.640Z,98271.41
2018-02-19T14:53:34.248Z,98115.55
2018-02-19T14:55:12.544Z,98053.21
2018-02-19T14:56:50.559Z,98235.24
2018-02-19T14:58:27.160Z,98177.05
2018-02-19T15:00:06.658Z,98240.02
2018-02-19T15:01:44.797Z,98271.92
2018-02-19T15:03:23.208Z,98126.45
2018-02-19T15:05:01.789Z,98173.14
2018-02-19T15:06:39.829Z,98184.08
2018-02-19T15:08:19.669Z,98285.93
2018-02-19T15:10:00.182Z,98380.64
2018-02-19T15:11:42.582Z,98447.58
2018-02-19T15:13:21.406Z,98531.59
2018-02-19T15:15:02.197Z,98529.40
2018-02-19T15:16:42.323Z,98529.40
2018-02-19T15:18:21.409Z,98484.80
2018-02-19T15:20:01.384Z,98421.37
2018-02-19T15:21:38.196Z,98280.63
2018-02-19T15:23:14.668Z,98153.97
2018-02-19T15:24:54.939Z,98155.70
2018-02-19T15:26:36.608Z,98196.38
2018-02-19T15:28:19.442Z,98274.06
2018-02-19T15:29:58.140Z,98308.60
2018-02-19T15:31:38.490Z,98324.73
2018-02-19T15:33:20.341Z,98344.39
2018-02-19T15:35:00.590Z,98359.69
2018-02-19T15:36:40.684Z,98369.34
2018-02-19T15:38:20.020Z,98304.20
2018-02-19T15:40:00.011Z,98334.30
2018-02-19T15:41:38.272Z,98393.37
2018-02-19T15:43:17.023Z,98370.61
2018-02-19T15:44:56.360Z,98181.44
2018-02-19T15:46:37.436Z,98184.95
2018-02-19T15:48:18.195Z,98247.45
2018-02-19T15:49:57.768Z,98270.61
2018-02-19T15:51:35.453Z,98316.81
2018-02-19T15:53:14.835Z,98329.92
2018-02-19T15:54:55.189Z,98305.52
2018-02-19T15:56:36.841Z,98143.13
2018-02-19T15:58:17.624Z,98115.98
2018-02-19T15:59:56.466Z,98054.94
2018-02-19T16:01:35.176Z,98059.34
2018-02-19T16:03:15.993Z,98158.75
2018-02-19T16:04:56.290Z,98096.85
2018-02-19T16:06:34.994Z,98056.72
2018-02-19T16:08:16.480Z,97883.16
2018-02-19T16:09:56.686Z,97888.85
2018-02-19T16:11:36.952Z,98075.47
2018-02-19T16:13:19.324Z,98231.21
2018-02-19T16:15:02.921Z,98249.55
2018-02-19T16:16:45.527Z,98254.83
2018-02-19T16:18:29.542Z,98112.91
2018-02-19T16:21:47.787Z,98149.54
2018-02-19T16:23:30.415Z,97991.69
2018-02-19T16:26:42.471Z,98286.77
2018-02-19T16:28:23.815Z,98347.44
2018-02-19T16:30:06.416Z,98337.38
2018-02-19T16:31:47.684Z,98317.67
2018-02-19T16:33:31.236Z,98290.62
2018-02-19T16:35:12.114Z,98274.01
2018-02-19T16:36:53.697Z,98272.73
2018-02-19T16:38:35.595Z,98243.02
2018-02-19T16:40:15.899Z,98277.98
2018-02-19T16:41:56.531Z,98264.84
2018-02-19T16:43:38.194Z,98161.75
2018-02-19T16:45:21.702Z,98102.34
2018-02-19T16:47:03.234Z,98076.28
2018-02-19T16:48:45.143Z,98037.02
2018-02-19T16:50:26.320Z,98065.75
2018-02-19T16:52:06.002Z,98085.40
2018-02-19T16:54:03.315Z,98112.45
2018-02-19T16:55:44.812Z,98123.75
2018-02-19T16:57:26.635Z,98118.08
2018-02-19T16:59:08.466Z,98150.86
2018-02-19T17:03:01.697Z,97958.00
2018-02-19T17:04:43.023Z,97927.09
2018-02-19T17:06:23.712Z,97914.05
2018-02-19T17:08:03.043Z,97879.16
2018-02-19T17:09:43.942Z,97910.58
2018-02-19T17:11:23.725Z,97841.70
2018-02-19T17:13:04.820Z,97693.16
2018-02-19T17:14:44.721Z,97546.22
2018-02-19T17:16:25.292Z,97513.56
2018-02-19T17:18:06.575Z,97548.40
2018-02-19T17:19:48.460Z,97730.22
2018-02-19T17:21:30.150Z,97875.66
2018-02-19T17:23:11.214Z,97969.36
2018-02-19T17:24:53.955Z,98083.59
2018-02-19T17:26:34.908Z,98180.42
2018-02-19T17:28:17.474Z,98199.23
2018-02-19T17:29:58.466Z,98162.95
2018-02-19T17:31:41.377Z,98142.03
2018-02-19T17:33:20.914Z,98083.16
2018-02-19T17:35:02.297Z,97915.66
2018-02-19T17:36:43.606Z,97803.32
2018-02-19T17:38:28.160Z,97801.56
2018-02-19T17:40:08.298Z,97796.34
2018-02-19T17:41:51.184Z,97831.24
2018-02-19T17:43:34.430Z,97917.47
2018-02-19T17:45:19.911Z,97900.05
2018-02-19T17:47:03.730Z,97905.72
2018-02-19T17:48:46.751Z,97929.63
2018-02-19T17:50:30.698Z,97970.65
2018-02-19T17:52:13.469Z,98058.81
2018-02-19T17:53:56.705Z,98099.32
2018-02-19T17:55:38.527Z,98136.78
2018-02-19T17:57:20.264Z,98065.70
2018-02-19T17:59:02.918Z,97976.22
2018-02-19T18:00:47.701Z,98000.32
2018-02-19T18:02:29.931Z,98012.48
2018-02-19T18:04:11.596Z,98046.11
2018-02-19T18:05:57.104Z,98048.69
2018-02-19T18:07:40.602Z,98129.83
2018-02-19T18:09:28.930Z,98208.41
2018-02-19T18:11:14.385Z,98253.81
2018-02-19T18:12:58.544Z,98257.36
2018-02-19T18:14:42.604Z,98098.83
2018-02-19T18:16:26.160Z,98043.86
2018-02-19T18:18:09.769Z,98039.55
2018-02-19T18:19:53.262Z,98041.27
2018-02-19T18:21:40.343Z,98007.22
2018-02-19T18:23:25.334Z,98124.19
2018-02-19T18:25:09.199Z,98215.81
2018-02-19T18:26:53.422Z,98212.73
2018-02-19T18:28:37.829Z,98214.45
2018-02-19T18:30:22.993Z,98136.33
2018-02-19T18:32:07.155Z,97987.15
2018-02-19T18:33:50.581Z,97899.99
2018-02-19T18:35:32.453Z,97804.61
2018-02-19T18:37:15.883Z,97711.78
2018-02-19T18:38:59.419Z,97731.39
2018-02-19T18:40:45.019Z,97782.75
2018-02-19T18:42:28.039Z,97897.41
2018-02-19T18:44:11.471Z,97944.00
2018-02-19T18:45:53.483Z,97868.18
2018-02-19T18:47:45.760Z,97787.58
2018-02-19T18:49:29.687Z,97680.83
2018-02-19T18:51:14.650Z,97515.52
2018-02-19T18:52:58.399Z,97382.14
2018-02-19T18:54:51.158Z,97279.74
2018-02-19T18:56:42.172Z,97267.18
2018-02-19T18:58:26.828Z,97453.87
2018-02-19T19:00:12.118Z,97530.80
2018-02-19T19:01:57.141Z,97592.52
2018-02-19T19:03:39.593Z,97588.53
2018-02-19T19:05:22.666Z,97524.20
2018-02-19T19:07:05.863Z,97488.60
2018-02-19T19:09:01.232Z,97479.48
2018-02-19T19:10:54.397Z,97468.20
2018-02-19T19:12:41.404Z,97464.73
2018-02-19T19:14:24.804Z,97422.91
2018-02-19T19:16:12.229Z,97334.80
2018-02-19T19:18:01.120Z,97356.91
2018-02-19T19:19:48.732Z,97394.29
2018-02-19T19:21:36.094Z,97419.94
2018-02-19T19:23:22.106Z,97374.69
2018-02-19T19:25:05.168Z,97440.33